createdAt,value
2022-10-28T00:00:26.281Z,10.066667
2022-10-28T00:05:21.186Z,9.916667
2022-10-28T00:10:24.405Z,9.825000
2022-10-28T00:15:27.532Z,9.800000
2022-10-28T00:20:18.833Z,9.733333
2022-10-28T00:25:21.940Z,9.609091
2022-10-28T00:30:26.362Z,9.622222
2022-10-28T00:35:28.254Z,9.836364
2022-10-28T00:40:19.522Z,9.955556
2022-10-28T00:45:22.508Z,10.090909
2022-10-28T00:50:26.630Z,10.190909
2022-10-28T00:55:28.736Z,10.233333
2022-10-28T01:00:19.654Z,10.277778
2022-10-28T01:05:22.867Z,10.177778
2022-10-28T01:10:26.720Z,10.033333
2022-10-28T01:15:29.110Z,9.855556
2022-10-28T01:20:20.268Z,9.787500
2022-10-28T01:25:23.373Z,9.700000
2022-10-28T01:30:26.701Z,9.600000
2022-10-28T01:35:35.085Z,9.500000
2022-10-28T01:40:20.533Z,9.430000
2022-10-28T01:45:23.757Z,9.400000
2022-10-28T01:50:27.638Z,9.300000
2022-10-28T01:55:30.026Z,9.236364
2022-10-28T02:00:21.027Z,9.170000
2022-10-28T02:05:27.056Z,9.100000
2022-10-28T02:10:27.186Z,9.060000
2022-10-28T02:15:27.154Z,9.100000
2022-10-28T02:20:21.822Z,9.100000
2022-10-28T02:25:27.060Z,9.200000
2022-10-28T02:30:27.962Z,9.200000
2022-10-28T02:35:19.096Z,9.266667
2022-10-28T02:40:22.161Z,9.316667
2022-10-28T02:45:27.283Z,9.438462
2022-10-28T02:50:28.464Z,9.550000
2022-10-28T02:55:19.484Z,9.700000
2022-10-28T03:00:22.994Z,9.800000
2022-10-28T03:05:27.185Z,9.900000
2022-10-28T03:10:28.797Z,9.900000
2022-10-28T03:15:19.797Z,9.907692
2022-10-28T03:20:23.169Z,10.000000
2022-10-28T03:25:27.296Z,10.090909
2022-10-28T03:30:29.416Z,9.980000
2022-10-28T03:35:20.437Z,9.740000
2022-10-28T03:40:23.499Z,9.336364
2022-10-28T03:45:30.859Z,9.080000
2022-10-28T03:50:30.661Z,8.900000
2022-10-28T03:55:20.801Z,8.900000
2022-10-28T04:00:23.843Z,8.900000
2022-10-28T04:05:27.760Z,8.900000
2022-10-28T04:10:30.145Z,8.990000
2022-10-28T04:15:21.238Z,9.000000
2022-10-28T04:20:24.347Z,9.100000
2022-10-28T04:25:27.654Z,9.116667
2022-10-28T04:30:30.694Z,9.200000
2022-10-28T04:35:21.648Z,9.200000
2022-10-28T04:40:25.542Z,9.200000
2022-10-28T04:45:28.172Z,9.200000
2022-10-28T04:50:18.965Z,9.200000
2022-10-28T04:55:22.056Z,9.254545
2022-10-28T05:00:28.171Z,9.336364
2022-10-28T05:05:28.409Z,9.458333
2022-10-28T05:10:19.444Z,9.627273
2022-10-28T05:15:22.493Z,9.800000
2022-10-28T05:20:25.768Z,9.960000
2022-10-28T05:25:28.872Z,10.190000
2022-10-28T05:30:19.971Z,10.400000
2022-10-28T05:35:23.002Z,10.681818
2022-10-28T05:40:28.179Z,10.900000
2022-10-28T05:45:34.675Z,11.175000
2022-10-28T05:50:20.258Z,11.450000
2022-10-28T05:55:23.497Z,11.777778
2022-10-28T06:00:28.289Z,12.111111
2022-10-28T06:05:29.683Z,12.425000
2022-10-28T06:10:20.742Z,12.781818
2022-10-28T06:15:22.255Z,13.033333
2022-10-28T06:20:25.910Z,13.154545
2022-10-28T06:25:28.866Z,13.220000
2022-10-28T06:30:19.748Z,13.330000
2022-10-28T06:35:23.031Z,13.550000
2022-10-28T06:40:26.793Z,13.780000
2022-10-28T06:45:29.939Z,13.963636
2022-10-28T06:50:21.814Z,14.150000
2022-10-28T06:55:24.911Z,14.283333
2022-10-28T07:00:28.509Z,14.420000
2022-10-28T07:05:19.033Z,14.530769
2022-10-28T07:10:22.206Z,14.636364
2022-10-28T07:15:28.187Z,14.790000
2022-10-28T07:20:28.690Z,14.990000
2022-10-28T07:25:19.695Z,15.130000
2022-10-28T07:30:23.787Z,15.200000
2022-10-28T07:35:28.334Z,15.300000
2022-10-28T07:40:29.078Z,15.511111
2022-10-28T07:45:20.140Z,15.669231
2022-10-28T07:50:23.213Z,15.809091
2022-10-28T07:55:28.244Z,15.900000
2022-10-28T08:00:29.562Z,16.000000
2022-10-28T08:05:20.436Z,16.090909
2022-10-28T08:10:23.682Z,16.210000
2022-10-28T08:15:27.425Z,16.300000
2022-10-28T08:20:30.357Z,16.328571
2022-10-28T08:25:21.444Z,16.366667
2022-10-28T08:30:24.473Z,16.440000
2022-10-28T08:35:28.226Z,16.500000
2022-10-28T08:40:30.803Z,16.525000
2022-10-28T08:45:21.721Z,16.541667
2022-10-28T08:50:24.881Z,16.600000
2022-10-28T08:55:28.201Z,16.600000
2022-10-28T09:00:19.025Z,16.700000
2022-10-28T09:05:22.224Z,16.727273
2022-10-28T09:10:28.222Z,16.800000
2022-10-28T09:15:28.409Z,16.918182
2022-10-28T09:20:19.671Z,17.000000
2022-10-28T09:25:22.729Z,17.000000
2022-10-28T09:30:25.788Z,16.954545
2022-10-28T09:35:29.180Z,16.945455
2022-10-28T09:40:21.253Z,17.000000
2022-10-28T09:45:23.163Z,16.992308
2022-10-28T09:50:28.150Z,16.900000
2022-10-28T09:55:29.373Z,16.983333
2022-10-28T10:00:20.407Z,17.000000
2022-10-28T10:05:23.490Z,16.870000
2022-10-28T10:10:28.433Z,16.650000
2022-10-28T10:15:29.818Z,16.430000
2022-10-28T10:20:20.983Z,16.188889
2022-10-28T10:25:24.262Z,15.930000
2022-10-28T10:30:28.547Z,15.945455
2022-10-28T10:35:30.394Z,16.090909
2022-10-28T10:40:21.401Z,16.300000
2022-10-28T10:45:24.650Z,16.210000
2022-10-28T10:50:28.218Z,16.200000
2022-10-28T10:55:30.911Z,16.154545
2022-10-28T11:00:21.864Z,15.970000
2022-10-28T11:05:27.350Z,15.730000
2022-10-28T11:10:28.248Z,15.720000
2022-10-28T11:15:19.122Z,15.810000
2022-10-28T11:20:22.269Z,15.809091
2022-10-28T11:25:28.257Z,15.691667
2022-10-28T11:30:28.563Z,15.650000
2022-10-28T11:35:19.559Z,15.772727
2022-10-28T11:40:22.809Z,15.877778
2022-10-28T11:45:28.442Z,15.981818
2022-10-28T11:50:28.935Z,16.000000
2022-10-28T11:55:19.979Z,16.033333
2022-10-28T12:00:23.096Z,16.033333
2022-10-28T12:05:28.283Z,16.000000
2022-10-28T12:10:29.425Z,15.988889
2022-10-28T12:15:20.298Z,15.890909
2022-10-28T12:20:23.933Z,15.800000
2022-10-28T12:25:28.400Z,15.741667
2022-10-28T12:30:30.257Z,15.720000
2022-10-28T12:35:21.224Z,15.700000
2022-10-28T12:40:24.363Z,15.618182
2022-10-28T12:45:28.292Z,15.600000
2022-10-28T12:50:30.573Z,15.600000
2022-10-28T12:55:21.653Z,15.670000
2022-10-28T13:00:24.908Z,15.700000
2022-10-28T13:05:27.907Z,15.670000
2022-10-28T13:10:19.153Z,15.600000
2022-10-28T13:15:22.210Z,15.645455
2022-10-28T13:20:28.118Z,15.660000
2022-10-28T13:25:28.702Z,15.600000
2022-10-28T13:30:19.665Z,15.600000
2022-10-28T13:35:22.909Z,15.563636
2022-10-28T13:40:28.256Z,15.500000
2022-10-28T13:45:29.086Z,15.500000
2022-10-28T13:50:20.068Z,15.457143
2022-10-28T13:55:23.202Z,15.355556
2022-10-28T14:00:33.594Z,15.250000
2022-10-28T14:05:29.478Z,15.120000
2022-10-28T14:10:21.030Z,15.000000
2022-10-28T14:15:23.671Z,14.900000
2022-10-28T14:20:28.867Z,14.811111
2022-10-28T14:25:30.238Z,14.775000
2022-10-28T14:30:21.139Z,14.700000
2022-10-28T14:35:24.343Z,14.636364
2022-10-28T14:40:28.229Z,14.600000
2022-10-28T14:45:30.592Z,14.550000
2022-10-28T14:50:21.620Z,14.500000
2022-10-28T14:55:24.714Z,14.500000
2022-10-28T15:00:28.369Z,14.409091
2022-10-28T15:05:18.875Z,14.308333
2022-10-28T15:10:22.027Z,14.154545
2022-10-28T15:15:25.203Z,14.045455
2022-10-28T15:20:28.568Z,13.940000
2022-10-28T15:25:19.488Z,13.863636
2022-10-28T15:30:22.767Z,13.755556
2022-10-28T15:35:28.630Z,13.675000
2022-10-28T15:40:28.921Z,13.527273
2022-10-28T15:45:19.951Z,13.353846
2022-10-28T15:50:23.236Z,13.200000
2022-10-28T15:55:47.657Z,13.027273
2022-10-28T16:00:29.369Z,12.862500
2022-10-28T16:05:23.948Z,12.700000
2022-10-28T16:10:23.465Z,12.600000
2022-10-28T16:15:28.730Z,12.500000
2022-10-28T16:20:30.164Z,12.390909
2022-10-28T16:25:21.110Z,12.227273
2022-10-28T16:30:24.254Z,12.100000
2022-10-28T16:35:29.104Z,12.075000
2022-10-28T16:40:50.364Z,11.970000
2022-10-28T16:45:21.456Z,11.781818
2022-10-28T16:50:24.702Z,11.544444
2022-10-28T16:55:27.790Z,11.350000
2022-10-28T17:00:30.897Z,11.160000
2022-10-28T17:05:21.929Z,11.010000
2022-10-28T17:10:25.030Z,10.870000
2022-10-28T17:15:29.176Z,10.800000
2022-10-28T17:20:19.467Z,10.740000
2022-10-28T17:25:22.547Z,10.425000
2022-10-28T17:30:25.825Z,10.087500
2022-10-28T17:35:29.511Z,9.888889
2022-10-28T17:40:19.907Z,9.800000
2022-10-28T17:45:23.025Z,9.800000
2022-10-28T17:50:26.130Z,9.750000
2022-10-28T17:55:31.099Z,9.577778
2022-10-28T18:00:20.224Z,9.437500
2022-10-28T18:05:23.490Z,9.260000
2022-10-28T18:10:29.534Z,9.030769
2022-10-28T18:15:29.745Z,8.800000
2022-10-28T18:20:21.091Z,8.646154
2022-10-28T18:25:24.168Z,8.520000
2022-10-28T18:30:29.447Z,8.500000
2022-10-28T18:35:30.412Z,8.520000
2022-10-28T18:40:22.257Z,8.500000
2022-10-28T18:45:24.528Z,8.418182
2022-10-28T18:50:29.968Z,8.485714
2022-10-28T18:55:30.864Z,8.600000
2022-10-28T19:00:21.896Z,8.658333
2022-10-28T19:05:25.069Z,8.560000
2022-10-28T19:10:30.001Z,8.336364
2022-10-28T19:15:19.140Z,8.130000
2022-10-28T19:20:22.639Z,8.141667
2022-10-28T19:25:25.740Z,8.290000
2022-10-28T19:30:29.947Z,8.300000
2022-10-28T19:35:19.926Z,8.233333
2022-10-28T19:40:23.090Z,8.200000
2022-10-28T19:45:27.643Z,8.110000
2022-10-28T19:50:30.606Z,7.900000
2022-10-28T19:55:20.354Z,7.827273
2022-10-28T20:00:23.451Z,7.900000
2022-10-28T20:05:26.504Z,7.900000
2022-10-28T20:10:30.295Z,7.800000
2022-10-28T20:15:20.674Z,7.560000
2022-10-28T20:20:24.033Z,7.390909
2022-10-28T20:25:27.233Z,7.260000
2022-10-28T20:30:42.512Z,7.155556
2022-10-28T20:35:21.268Z,6.988889
2022-10-28T20:40:24.485Z,6.946154
2022-10-28T20:45:27.604Z,7.188889
2022-10-28T20:50:42.863Z,7.391667
2022-10-28T20:55:21.783Z,7.400000
2022-10-28T21:00:24.786Z,7.400000
2022-10-28T21:05:30.820Z,7.400000
2022-10-28T21:10:18.992Z,7.400000
2022-10-28T21:15:22.051Z,7.345455
2022-10-28T21:20:25.702Z,7.338462
2022-10-28T21:25:31.688Z,7.366667
2022-10-28T21:30:19.963Z,7.300000
2022-10-28T21:35:22.958Z,7.272727
2022-10-28T21:40:26.450Z,7.145455
2022-10-28T21:45:19.142Z,7.000000
2022-10-28T21:50:20.326Z,7.011111
2022-10-28T21:55:26.855Z,7.100000
2022-10-28T22:00:19.124Z,7.100000
2022-10-28T22:05:31.172Z,7.130000
2022-10-28T22:10:20.772Z,7.290909
2022-10-28T22:15:19.104Z,7.477778
2022-10-28T22:20:19.198Z,7.455556
2022-10-28T22:25:19.069Z,7.330000
2022-10-28T22:30:21.504Z,7.175000
2022-10-28T22:35:19.459Z,7.090909
2022-10-28T22:40:19.804Z,7.000000
2022-10-28T22:45:19.518Z,7.025000
2022-10-28T22:50:22.548Z,7.100000
2022-10-28T22:55:19.587Z,7.080000
2022-10-28T23:00:24.824Z,6.836364
2022-10-28T23:05:19.442Z,6.700000
2022-10-28T23:10:22.328Z,6.670000
2022-10-28T23:15:19.518Z,6.600000
2022-10-28T23:20:19.558Z,6.550000
2022-10-28T23:25:20.071Z,6.462500
2022-10-28T23:30:19.502Z,6.272727
2022-10-28T23:35:19.856Z,6.290000
2022-10-28T23:40:31.965Z,6.269231
2022-10-28T23:45:21.151Z,6.200000
2022-10-28T23:50:19.909Z,6.255556
2022-10-28T23:55:19.952Z,6.300000
